Time;durP1;ratioP1;P1;durP2;ratioP2;P2;SDS_P1;SDS_P2;PMS_P1;PMS_P2;Temp;Humidity;BMP_temperature;BMP_pressure;BME280_temperature;BME280_humidity;BME280_pressure;Samples;Min_cycle;Max_cycle;Signal;HPM_P1;HPM_P2
2021/07/22 00:01:37;;;;;;;11.08;5.22;;;;;;;24.55;62.16;100667.63;1623945;88;21054;-52
2021/07/22 00:04:05;;;;;;;7.08;4.50;;;;;;;24.51;61.98;100670.19;1624143;88;21098;-50
2021/07/22 00:06:31;;;;;;;7.25;4.90;;;;;;;24.46;62.24;100680.37;1623972;88;21058;-52
2021/07/22 00:08:59;;;;;;;9.88;4.62;;;;;;;24.43;62.71;100676.12;1623814;88;21074;-55
2021/07/22 00:11:26;;;;;;;11.50;4.80;;;;;;;24.41;63.08;100671.89;1623926;88;21563;-50
2021/07/22 00:13:53;;;;;;;6.37;4.22;;;;;;;24.38;63.44;100672.16;1623748;87;21097;-51
2021/07/22 00:16:20;;;;;;;9.75;4.72;;;;;;;24.35;63.13;100640.47;1624057;88;21554;-49
2021/07/22 00:18:47;;;;;;;10.35;5.20;;;;;;;24.31;63.17;100638.55;1623792;87;21109;-49
2021/07/22 00:21:14;;;;;;;9.90;4.95;;;;;;;24.30;63.41;100637.36;1624043;88;21101;-52
2021/07/22 00:23:41;;;;;;;6.25;4.10;;;;;;;24.27;63.52;100649.08;1624014;88;21567;-50
2021/07/22 00:26:09;;;;;;;8.58;4.45;;;;;;;24.27;63.16;100648.22;1623895;88;21077;-51
2021/07/22 00:28:35;;;;;;;6.62;5.08;;;;;;;24.25;63.21;100653.16;1623795;88;21085;-53
2021/07/22 00:31:02;;;;;;;9.60;4.97;;;;;;;24.25;63.19;100658.99;1623997;87;21126;-49
2021/07/22 00:33:29;;;;;;;6.62;3.72;;;;;;;24.24;62.89;100676.75;1624153;87;21102;-52
2021/07/22 00:35:58;;;;;;;5.42;4.30;;;;;;;24.25;63.10;100669.62;1623928;87;21069;-55
2021/07/22 00:38:24;;;;;;;6.47;4.12;;;;;;;24.28;62.92;100705.77;1623945;88;21554;-49
2021/07/22 00:40:51;;;;;;;7.25;4.30;;;;;;;24.30;62.97;100685.22;1623895;88;21037;-52
2021/07/22 00:43:18;;;;;;;5.53;4.62;;;;;;;24.32;63.12;100716.53;1624066;88;21010;-51
2021/07/22 00:45:44;;;;;;;8.68;4.55;;;;;;;24.34;62.56;100713.27;1623942;88;21030;-49
2021/07/22 00:48:11;;;;;;;8.63;5.10;;;;;;;24.35;62.74;100696.33;1623972;88;21086;-52
2021/07/22 00:50:38;;;;;;;5.85;4.50;;;;;;;24.37;62.53;100705.02;1624077;88;21574;-52
2021/07/22 00:53:04;;;;;;;6.58;4.90;;;;;;;24.40;62.20;100704.28;1623970;88;21007;-53
2021/07/22 00:55:31;;;;;;;7.80;5.00;;;;;;;24.42;61.92;100701.53;1623786;88;21074;-52
2021/07/22 00:57:59;;;;;;;8.68;5.05;;;;;;;24.45;61.81;100697.28;1623862;88;21560;-49
2021/07/22 01:00:27;;;;;;;8.65;5.12;;;;;;;24.43;61.23;100706.72;1623990;88;21546;-51
2021/07/22 01:02:54;;;;;;;4.95;4.35;;;;;;;24.42;62.08;100720.97;1623944;88;21042;-51
2021/07/22 01:05:22;;;;;;;6.42;4.97;;;;;;;24.42;61.64;100741.42;1624012;88;21518;-51
2021/07/22 01:07:48;;;;;;;5.85;4.40;;;;;;;24.39;61.90;100745.64;1623789;88;21534;-49
2021/07/22 01:10:18;;;;;;;4.33;3.75;;;;;;;24.37;62.77;100771.52;1625440;87;21157;-50
2021/07/22 01:12:46;;;;;;;4.95;4.25;;;;;;;24.35;62.63;100771.64;1624051;88;21034;-53
2021/07/22 01:15:12;;;;;;;5.55;4.10;;;;;;;24.36;62.79;100780.48;1623751;88;21035;-51
2021/07/22 01:17:48;;;;;;;6.42;4.40;;;;;;;24.35;62.24;100781.42;1623906;88;21027;-52
2021/07/22 01:20:21;;;;;;;5.90;4.12;;;;;;;24.36;62.36;100771.17;1591021;90;21053;-52
2021/07/22 01:22:50;;;;;;;5.75;3.50;;;;;;;24.36;62.33;100800.42;1590889;90;21077;-48
2021/07/22 01:25:18;;;;;;;6.45;3.80;;;;;;;24.37;61.88;100787.47;1590990;90;21561;-53
2021/07/22 01:27:45;;;;;;;6.87;3.95;;;;;;;24.39;61.92;100801.50;1591009;90;21634;-53
2021/07/22 01:30:14;;;;;;;6.58;3.67;;;;;;;24.40;61.76;100799.22;1590875;90;21152;-50
2021/07/22 01:32:42;;;;;;;7.87;4.17;;;;;;;24.38;61.66;100809.95;1590959;90;21101;-50
2021/07/22 01:35:11;;;;;;;6.05;3.55;;;;;;;24.39;61.84;100806.81;1590860;90;21057;-51
2021/07/22 01:37:39;;;;;;;8.70;3.92;;;;;;;24.36;61.91;100802.58;1590920;90;21017;-50
2021/07/22 01:40:09;;;;;;;5.67;3.40;;;;;;;24.31;62.13;100820.72;1590969;90;21077;-54
2021/07/22 01:42:35;;;;;;;5.22;3.22;;;;;;;24.28;63.00;100822.78;1590974;90;21537;-50
2021/07/22 01:45:06;;;;;;;6.33;4.17;;;;;;;24.26;62.99;100826.86;1590776;90;21101;-49
2021/07/22 01:47:36;;;;;;;5.12;3.65;;;;;;;24.24;63.16;100836.30;1544550;91;21092;-53
2021/07/22 01:50:06;;;;;;;5.35;4.08;;;;;;;24.22;63.36;100823.60;1532813;93;21604;-50
2021/07/22 01:52:33;;;;;;;5.72;4.00;;;;;;;24.20;63.43;100822.88;1513503;94;21057;-53
2021/07/22 01:55:00;;;;;;;7.70;4.65;;;;;;;24.16;63.21;100826.73;1488821;95;21085;-52
2021/07/22 01:57:27;;;;;;;10.58;5.42;;;;;;;24.12;63.60;100823.95;1512570;94;21122;-52
2021/07/22 01:59:59;;;;;;;6.33;4.83;;;;;;;24.11;63.97;100844.02;1477171;96;21638;-55
2021/07/22 02:02:23;;;;;;;7.42;4.95;;;;;;;24.11;63.98;100839.52;1497164;94;21103;-52
2021/07/22 02:04:51;;;;;;;7.97;5.65;;;;;;;24.09;63.83;100851.26;1476605;96;21568;-50
2021/07/22 02:07:18;;;;;;;7.45;4.03;;;;;;;24.09;63.67;100858.73;1514229;94;21144;-52
2021/07/22 02:09:46;;;;;;;12.13;7.15;;;;;;;24.08;63.78;100862.38;1514040;94;21094;-55
2021/07/22 02:12:13;;;;;;;10.38;7.78;;;;;;;24.08;63.82;100876.99;1482220;95;21656;-53
2021/07/22 02:14:42;;;;;;;10.93;6.72;;;;;;;24.07;64.08;100889.08;1518374;94;21130;-50
2021/07/22 02:17:10;;;;;;;13.83;8.93;;;;;;;24.03;64.03;100888.44;1510226;93;21704;-51
2021/07/22 02:19:37;;;;;;;12.28;7.33;;;;;;;24.04;63.76;100887.48;1511262;95;21144;-50
2021/07/22 02:22:06;;;;;;;6.67;4.75;;;;;;;24.01;63.35;100894.80;1511174;95;21077;-48
2021/07/22 02:24:34;;;;;;;8.03;3.50;;;;;;;24.01;63.44;100892.98;1548286;92;21073;-49
2021/07/22 02:27:05;;;;;;;3.70;2.85;;;;;;;24.01;63.77;100899.64;1543492;92;21102;-49
2021/07/22 02:29:32;;;;;;;4.35;3.12;;;;;;;24.00;63.34;100903.27;1540664;92;21105;-53
2021/07/22 02:31:59;;;;;;;5.10;3.20;;;;;;;23.96;63.37;100908.45;1545571;92;21073;-50
2021/07/22 02:34:27;;;;;;;5.72;3.10;;;;;;;23.94;63.59;100906.39;1540847;92;21184;-49
2021/07/22 02:36:55;;;;;;;3.37;3.08;;;;;;;23.93;63.50;100910.00;1540658;92;21145;-50
2021/07/22 02:39:26;;;;;;;6.00;3.20;;;;;;;23.90;63.76;100911.57;1522421;92;21096;-50
2021/07/22 02:41:53;;;;;;;3.60;2.75;;;;;;;23.89;63.92;100907.20;1540653;92;21125;-50
2021/07/22 02:44:21;;;;;;;5.05;2.80;;;;;;;23.90;64.30;100906.26;1559515;91;21067;-49
2021/07/22 02:46:51;;;;;;;3.85;2.98;;;;;;;23.90;63.64;100900.94;1609407;87;21048;-50
2021/07/22 02:49:19;;;;;;;3.87;2.77;;;;;;;23.91;63.61;100922.55;1635434;87;21037;-48
2021/07/22 02:51:46;;;;;;;5.00;3.20;;;;;;;23.92;63.61;100922.94;1633367;88;21074;-54
2021/07/22 02:54:12;;;;;;;3.83;2.92;;;;;;;23.92;63.24;100922.94;1644267;87;21467;-48
2021/07/22 02:56:40;;;;;;;2.75;2.55;;;;;;;23.94;63.33;100921.48;1639438;87;21096;-52
2021/07/22 02:59:08;;;;;;;3.67;2.50;;;;;;;23.96;63.78;100925.73;1633598;87;21058;-49
2021/07/22 03:01:37;;;;;;;6.60;3.02;;;;;;;23.98;63.45;100930.45;1644001;87;21018;-51
2021/07/22 03:04:06;;;;;;;3.70;2.50;;;;;;;24.01;63.28;100930.20;1635210;87;21032;-49
2021/07/22 03:06:34;;;;;;;7.65;2.60;;;;;;;24.02;63.05;100928.41;1639470;87;21068;-51
2021/07/22 03:09:02;;;;;;;4.12;2.52;;;;;;;24.03;63.14;100936.29;1638834;87;21164;-52
2021/07/22 03:11:31;;;;;;;9.40;2.60;;;;;;;24.04;63.56;100927.37;1635065;87;21125;-48
2021/07/22 03:14:01;;;;;;;6.70;3.05;;;;;;;24.07;63.66;100941.74;1634270;87;21100;-49
2021/07/22 03:16:29;;;;;;;6.62;2.80;;;;;;;24.08;62.98;100932.82;1638254;87;21045;-47
2021/07/22 03:19:10;;;;;;;4.53;2.97;;;;;;;24.10;62.55;100945.52;1640423;86;21497;-49
2021/07/22 03:21:38;;;;;;;4.55;2.80;;;;;;;24.12;62.92;100943.59;1608782;89;21089;-49
2021/07/22 03:24:25;;;;;;;6.92;2.65;;;;;;;24.17;63.28;100953.89;1612950;89;21551;-49
2021/07/22 03:26:53;;;;;;;3.12;2.02;;;;;;;24.19;63.23;100947.47;1577086;90;21100;-53
2021/07/22 03:29:21;;;;;;;5.58;2.42;;;;;;;24.21;63.59;100953.52;1608124;89;21131;-48
2021/07/22 03:31:48;;;;;;;3.98;2.90;;;;;;;24.21;63.29;100959.34;1613005;89;21075;-53
2021/07/22 03:34:17;;;;;;;3.67;2.55;;;;;;;24.24;63.36;100968.40;1612692;88;21076;-53
2021/07/22 03:36:46;;;;;;;6.70;2.95;;;;;;;24.24;62.86;100962.61;1598695;88;21321;-51
2021/07/22 03:39:14;;;;;;;5.00;2.50;;;;;;;24.27;62.21;100963.34;1605782;89;21150;-47
2021/07/22 03:41:48;;;;;;;3.75;2.37;;;;;;;24.27;61.84;100962.01;1601622;88;21183;-49
2021/07/22 03:44:22;;;;;;;3.58;2.22;;;;;;;24.28;61.48;100961.06;1595084;89;21072;-48
2021/07/22 03:46:50;;;;;;;4.92;2.35;;;;;;;24.29;61.13;100965.41;1610046;89;21080;-49
2021/07/22 03:49:17;;;;;;;4.92;2.67;;;;;;;24.29;61.40;100966.26;1613029;89;21052;-51
2021/07/22 03:51:44;;;;;;;3.42;2.30;;;;;;;24.30;61.34;100961.80;1598312;88;21053;-48
2021/07/22 03:54:11;;;;;;;4.78;2.60;;;;;;;24.30;61.24;100964.45;1580600;89;21104;-49
2021/07/22 03:56:38;;;;;;;3.92;2.30;;;;;;;24.30;60.95;100964.45;1609832;89;21146;-50
2021/07/22 03:59:07;;;;;;;4.70;2.45;;;;;;;24.31;61.58;100955.50;1615594;87;21517;-49
2021/07/22 04:01:38;;;;;;;2.58;1.98;;;;;;;24.34;61.50;100969.91;1632984;87;21070;-53
2021/07/22 04:04:07;;;;;;;5.20;2.33;;;;;;;24.36;61.37;100970.64;1638004;87;21540;-48
2021/07/22 04:06:35;;;;;;;6.87;2.75;;;;;;;24.36;60.59;100965.32;1634981;87;21034;-49
2021/07/22 04:09:04;;;;;;;9.13;2.80;;;;;;;24.36;60.53;100965.32;1633667;88;21066;-48
2021/07/22 04:11:40;;;;;;;5.60;2.98;;;;;;;24.37;60.84;100961.20;1639560;87;21072;-51
2021/07/22 04:14:25;;;;;;;3.92;2.35;;;;;;;24.40;61.33;100968.11;1596837;88;21005;-49
2021/07/22 04:17:16;;;;;;;6.50;2.67;;;;;;;24.42;60.57;100963.52;1583021;89;21057;-49
2021/07/22 04:19:46;;;;;;;2.60;2.40;;;;;;;24.44;60.78;100969.58;1595193;89;21078;-47
2021/07/22 04:22:15;;;;;;;5.35;2.58;;;;;;;24.45;60.58;100961.95;1630160;87;21602;-48
2021/07/22 04:24:43;;;;;;;4.83;2.70;;;;;;;24.48;60.74;100963.06;1634498;87;21074;-49
2021/07/22 04:27:27;;;;;;;5.45;2.65;;;;;;;24.50;60.27;100979.75;1636783;87;21062;-50
2021/07/22 04:29:57;;;;;;;5.85;2.30;;;;;;;24.50;60.42;100974.43;1631319;87;21073;-49
2021/07/22 04:32:23;;;;;;;7.05;2.62;;;;;;;24.52;60.13;100992.45;1636007;87;21018;-50
2021/07/22 04:34:51;;;;;;;3.80;2.35;;;;;;;24.52;60.37;100981.81;1634068;87;21078;-50
2021/07/22 04:37:26;;;;;;;8.48;2.70;;;;;;;24.53;60.05;100975.51;1635603;87;21019;-48
2021/07/22 04:42:36;;;;;;;3.77;2.30;;;;;;;24.57;59.56;100976.97;1639453;87;21541;-49
2021/07/22 04:45:14;;;;;;;3.35;2.30;;;;;;;24.59;59.41;100993.66;1659894;86;21535;-54
2021/07/22 04:47:42;;;;;;;3.15;2.37;;;;;;;24.61;58.92;100987.74;1640329;87;20998;-52
2021/07/22 04:50:17;;;;;;;4.85;2.65;;;;;;;24.63;58.66;100985.81;1513900;94;21118;-51
2021/07/22 04:52:52;;;;;;;4.37;2.35;;;;;;;24.65;58.81;100994.52;1522555;93;21046;-51
2021/07/22 04:55:27;;;;;;;3.80;2.47;;;;;;;24.66;59.07;100991.77;1522400;94;21528;-53
2021/07/22 04:57:59;;;;;;;3.85;2.25;;;;;;;24.71;59.02;100995.42;1522530;94;21087;-53
2021/07/22 05:00:26;;;;;;;3.72;2.70;;;;;;;24.76;58.84;100994.59;1522397;94;21571;-50
2021/07/22 05:02:58;;;;;;;2.83;2.40;;;;;;;24.80;58.76;100996.91;1522460;94;21579;-50
2021/07/22 05:05:27;;;;;;;5.87;2.72;;;;;;;24.85;58.66;100993.91;1505246;95;21091;-51
2021/07/22 05:08:12;;;;;;;6.72;2.70;;;;;;;24.89;57.89;100987.38;1505209;95;21143;-52
2021/07/22 05:10:41;;;;;;;8.35;2.90;;;;;;;24.89;57.85;100990.03;1500572;96;21122;-51
2021/07/22 05:13:27;;;;;;;3.83;2.58;;;;;;;24.92;58.16;100999.09;1500650;95;21117;-50
2021/07/22 05:15:56;;;;;;;3.47;2.50;;;;;;;24.96;58.37;100999.22;1486518;96;21176;-53
2021/07/22 05:18:31;;;;;;;6.30;2.70;;;;;;;24.99;58.47;100999.00;1502907;95;21095;-52
2021/07/22 05:21:20;;;;;;;5.05;2.67;;;;;;;25.01;58.22;100999.25;1437739;100;21659;-52
2021/07/22 05:24:39;;;;;;;3.17;2.45;;;;;;;25.05;58.41;101002.52;1391301;100;21193;-52
2021/07/22 05:27:23;;;;;;;9.30;2.50;;;;;;;25.08;57.94;101002.26;1350393;106;21158;-54
2021/07/22 05:29:54;;;;;;;2.50;2.30;;;;;;;25.12;57.03;100999.75;1379444;103;21203;-55
2021/07/22 05:32:40;;;;;;;2.80;2.25;;;;;;;25.16;56.63;100997.21;1377145;104;21638;-49
2021/07/22 05:35:27;;;;;;;5.47;3.77;;;;;;;25.19;55.87;101002.28;1341102;107;21103;-50
2021/07/22 05:38:40;;;;;;;7.35;3.05;;;;;;;25.28;56.19;101002.05;1358915;104;21158;-52
2021/07/22 05:41:09;;;;;;;6.90;3.58;;;;;;;25.36;55.94;101005.81;1357521;106;21170;-50
2021/07/22 05:43:38;;;;;;;6.15;3.17;;;;;;;25.44;55.30;101003.41;1367728;104;21077;-49
2021/07/22 05:46:07;;;;;;;6.22;2.37;;;;;;;25.50;54.72;101001.59;1364213;104;21128;-49
2021/07/22 05:48:33;;;;;;;3.30;2.77;;;;;;;25.56;54.69;100999.77;1344812;105;21164;-53
2021/07/22 05:51:01;;;;;;;3.98;2.45;;;;;;;25.65;54.29;100991.05;1326418;106;21176;-49
2021/07/22 05:53:28;;;;;;;3.08;2.30;;;;;;;25.74;54.84;100992.09;1307586;105;21223;-49
2021/07/22 05:55:59;;;;;;;3.27;2.52;;;;;;;25.83;54.66;101000.21;1339244;106;21225;-50
2021/07/22 05:58:27;;;;;;;4.70;2.85;;;;;;;25.95;54.81;100994.83;1318000;108;21741;-49
2021/07/22 06:00:55;;;;;;;4.35;2.60;;;;;;;26.19;54.19;100991.53;1326544;106;21190;-47
2021/07/22 06:03:22;;;;;;;8.13;2.65;;;;;;;26.19;54.19;100991.53;1335180;106;21169;-52
2021/07/22 06:05:48;;;;;;;5.20;2.87;;;;;;;26.31;53.82;100991.84;1343527;102;21187;-51
2021/07/22 06:08:15;;;;;;;5.85;2.80;;;;;;;26.41;52.22;100986.09;1396235;101;21209;-52
2021/07/22 06:10:42;;;;;;;4.40;2.30;;;;;;;26.62;52.27;100980.30;1386321;102;21156;-51
2021/07/22 06:13:11;;;;;;;3.35;2.62;;;;;;;26.76;51.68;100987.14;1421453;100;21149;-52
2021/07/22 06:15:39;;;;;;;6.03;2.80;;;;;;;26.76;51.68;100987.14;1466592;96;21145;-48
2021/07/22 06:18:06;;;;;;;2.37;2.00;;;;;;;26.85;51.07;100979.22;1490101;96;21624;-48
2021/07/22 06:20:33;;;;;;;4.30;1.95;;;;;;;26.95;50.71;100988.12;1491407;96;21711;-49
2021/07/22 06:23:00;;;;;;;4.60;2.80;;;;;;;27.05;50.17;100981.00;1494667;95;21130;-51
2021/07/22 06:25:27;;;;;;;4.75;3.50;;;;;;;27.15;50.24;100981.89;1492587;95;21661;-50
2021/07/22 06:27:54;;;;;;;3.17;2.62;;;;;;;27.29;49.95;100982.86;1484176;96;21077;-47
2021/07/22 06:30:21;;;;;;;5.55;2.47;;;;;;;27.41;50.57;100980.96;1479379;96;21123;-53
2021/07/22 06:32:48;;;;;;;6.05;2.50;;;;;;;27.50;50.33;100980.64;1469692;96;21651;-50
2021/07/22 06:35:15;;;;;;;10.55;9.00;;;;;;;27.53;49.96;100971.88;1477382;95;21062;-47
2021/07/22 06:37:45;;;;;;;5.47;3.60;;;;;;;27.51;48.86;100983.20;1478456;96;21179;-51
2021/07/22 06:40:13;;;;;;;4.40;2.65;;;;;;;27.51;49.10;100983.20;1431036;99;21116;-51
2021/07/22 06:42:41;;;;;;;4.72;1.92;;;;;;;27.51;48.45;100982.34;1425371;100;21651;-48
2021/07/22 06:45:10;;;;;;;3.00;2.00;;;;;;;27.49;48.08;100978.97;1414530;99;21128;-49
2021/07/22 06:47:39;;;;;;;5.00;1.95;;;;;;;27.49;48.37;100985.65;1439676;98;21196;-50
2021/07/22 06:50:08;;;;;;;8.85;2.15;;;;;;;27.48;48.16;100982.13;1430952;100;21149;-49
2021/07/22 06:52:37;;;;;;;2.27;2.08;;;;;;;27.49;47.42;100986.98;1426401;100;21677;-47
2021/07/22 06:55:08;;;;;;;4.22;2.42;;;;;;;27.49;48.46;100995.00;1467290;92;22404;-48
2021/07/22 06:57:35;;;;;;;2.95;2.30;;;;;;;27.50;49.85;100988.17;1527135;91;21190;-48
2021/07/22 07:00:05;;;;;;;5.80;2.27;;;;;;;27.52;50.31;100992.90;1538348;91;21074;-50
2021/07/22 07:02:32;;;;;;;4.30;2.65;;;;;;;27.53;49.06;100993.75;1498410;94;21061;-50
2021/07/22 07:04:59;;;;;;;8.73;3.85;;;;;;;27.55;48.56;100997.13;1500677;94;21596;-49
2021/07/22 07:07:25;;;;;;;5.30;4.80;;;;;;;27.54;47.26;100990.94;1527287;93;21063;-50
2021/07/22 07:09:53;;;;;;;6.33;3.20;;;;;;;27.55;46.62;100994.45;1499146;94;21184;-50
2021/07/22 07:12:28;;;;;;;3.92;2.10;;;;;;;27.55;46.58;100995.31;1499968;94;21143;-47
2021/07/22 07:14:55;;;;;;;3.90;2.80;;;;;;;27.57;46.53;101000.52;1501154;94;21172;-49
2021/07/22 07:17:24;;;;;;;3.83;2.17;;;;;;;27.60;46.62;100989.53;1518304;92;21083;-49
2021/07/22 07:19:51;;;;;;;2.33;2.12;;;;;;;27.62;46.03;101000.94;1524333;92;21109;-51
2021/07/22 07:22:18;;;;;;;4.70;2.90;;;;;;;27.63;46.28;101000.83;1534281;92;21115;-47
2021/07/22 07:24:44;;;;;;;6.33;2.42;;;;;;;27.65;46.55;101000.68;1531236;93;21315;-49
2021/07/22 07:27:11;;;;;;;6.53;2.47;;;;;;;27.69;47.32;101010.12;1533779;92;21251;-53
2021/07/22 07:29:38;;;;;;;2.25;2.00;;;;;;;27.75;46.26;101005.08;1525883;93;21496;-49
2021/07/22 07:32:06;;;;;;;4.15;2.40;;;;;;;27.83;46.69;101012.40;1528587;93;21623;-48
2021/07/22 07:34:32;;;;;;;3.77;2.22;;;;;;;27.91;47.84;101021.91;1508916;92;21130;-49
2021/07/22 07:37:00;;;;;;;4.70;2.47;;;;;;;27.98;48.08;101013.26;1547350;90;21118;-50
2021/07/22 07:39:27;;;;;;;2.87;2.12;;;;;;;28.05;47.46;101018.88;1569616;90;21174;-50
2021/07/22 07:41:55;;;;;;;3.15;2.33;;;;;;;28.11;47.16;101012.97;1576371;89;21540;-51
2021/07/22 07:44:21;;;;;;;3.15;2.00;;;;;;;28.18;46.19;101021.66;1574142;90;21054;-49
2021/07/22 07:46:48;;;;;;;3.35;2.00;;;;;;;28.24;45.59;101014.03;1573832;90;21582;-48
2021/07/22 07:49:15;;;;;;;3.22;2.02;;;;;;;28.28;45.52;101017.64;1567566;91;21108;-50
2021/07/22 07:51:42;;;;;;;2.85;1.92;;;;;;;28.28;45.34;101018.97;1571049;91;21116;-48
2021/07/22 07:54:11;;;;;;;3.98;2.75;;;;;;;28.31;46.37;101023.20;1566819;91;21535;-49
2021/07/22 07:56:39;;;;;;;4.03;2.27;;;;;;;28.32;46.91;101024.39;1580573;89;21123;-48
2021/07/22 07:59:05;;;;;;;2.85;2.58;;;;;;;28.31;46.66;101024.06;1578417;90;21529;-47
2021/07/22 08:01:32;;;;;;;6.60;2.72;;;;;;;28.27;46.97;101026.67;1585770;88;21754;-48
2021/07/22 08:03:59;;;;;;;9.15;2.67;;;;;;;28.25;47.75;101039.83;1589825;90;21107;-50
2021/07/22 08:06:25;;;;;;;4.83;2.35;;;;;;;28.25;47.48;101038.00;1624379;87;21154;-47
2021/07/22 08:08:52;;;;;;;4.97;2.30;;;;;;;28.25;47.99;101036.66;1636399;86;21522;-51
2021/07/22 08:11:20;;;;;;;4.90;2.95;;;;;;;28.27;48.09;101044.06;1631293;87;21103;-49
2021/07/22 08:13:47;;;;;;;4.83;2.30;;;;;;;28.29;47.29;101036.73;1637782;86;21163;-47
2021/07/22 08:16:17;;;;;;;3.83;2.35;;;;;;;28.35;47.16;101044.20;1633619;87;21068;-49
2021/07/22 08:18:46;;;;;;;5.15;2.65;;;;;;;28.39;47.51;101041.59;1641966;86;21138;-47
2021/07/22 08:21:13;;;;;;;5.47;3.60;;;;;;;28.43;46.33;101044.34;1634513;87;21220;-47
2021/07/22 08:23:40;;;;;;;5.12;2.62;;;;;;;28.48;46.63;101042.08;1638594;87;21150;-48
2021/07/22 08:26:09;;;;;;;9.53;2.40;;;;;;;28.52;45.32;101046.67;1621271;86;21510;-48
2021/07/22 08:28:36;;;;;;;3.05;2.35;;;;;;;28.54;45.22;101052.22;1635948;87;21055;-50
2021/07/22 08:31:03;;;;;;;2.85;1.90;;;;;;;28.56;44.30;101056.15;1642080;86;21036;-49
2021/07/22 08:33:31;;;;;;;4.60;2.00;;;;;;;28.59;44.38;101041.98;1640055;86;21115;-48
2021/07/22 08:35:59;;;;;;;5.28;2.30;;;;;;;28.62;44.69;101055.09;1639553;87;21096;-47
2021/07/22 08:38:25;;;;;;;4.62;2.25;;;;;;;28.66;44.64;101052.48;1637455;86;21068;-47
2021/07/22 08:40:52;;;;;;;2.05;1.82;;;;;;;28.68;44.63;101046.98;1637161;87;21041;-48
2021/07/22 08:43:19;;;;;;;5.20;2.12;;;;;;;28.69;43.28;101046.83;1638110;87;21560;-47
2021/07/22 08:45:48;;;;;;;3.52;2.10;;;;;;;28.73;44.07;101046.05;1632273;87;21107;-51
2021/07/22 08:48:15;;;;;;;4.97;1.85;;;;;;;28.74;43.89;101043.24;1641132;87;21476;-49
2021/07/22 08:50:44;;;;;;;3.33;1.80;;;;;;;28.76;42.11;101039.93;1635562;87;21145;-50
2021/07/22 08:53:11;;;;;;;7.85;2.50;;;;;;;28.79;42.49;101045.50;1625702;86;21548;-52
2021/07/22 08:55:47;;;;;;;3.70;1.80;;;;;;;28.84;43.81;101048.09;1621195;87;21089;-47
2021/07/22 08:58:14;;;;;;;4.33;1.70;;;;;;;28.89;43.83;101052.51;1613488;87;21536;-50
2021/07/22 09:00:41;;;;;;;4.08;2.20;;;;;;;28.92;43.51;101060.27;1568473;88;21061;-50
2021/07/22 09:03:12;;;;;;;5.58;2.40;;;;;;;28.94;43.23;101062.80;1592750;86;21100;-49
2021/07/22 09:05:40;;;;;;;;;;;;;;;28.96;43.64;101064.35;1620486;87;21085;-49
2021/07/22 09:08:07;;;;;;;2.55;1.85;;;;;;;28.98;43.57;101060.19;1614416;88;20112;-51
2021/07/22 09:10:34;;;;;;;5.30;2.27;;;;;;;29.01;43.43;101063.08;1638191;87;21094;-50
2021/07/22 09:13:01;;;;;;;3.52;2.00;;;;;;;29.04;43.27;101060.94;1645266;87;21028;-50
2021/07/22 09:15:33;;;;;;;6.50;2.12;;;;;;;29.08;43.88;101059.66;1628497;87;21565;-50
2021/07/22 09:18:00;;;;;;;5.83;2.37;;;;;;;29.13;43.90;101072.64;1642036;87;21048;-51
2021/07/22 09:20:32;;;;;;;7.03;2.00;;;;;;;29.16;44.07;101061.67;1624707;87;21035;-50
2021/07/22 09:23:00;;;;;;;3.65;1.92;;;;;;;29.20;43.45;101065.75;1631818;87;21115;-51
2021/07/22 09:25:46;;;;;;;5.70;2.50;;;;;;;29.22;42.14;101066.45;1635964;87;21566;-53
2021/07/22 09:28:26;;;;;;;4.62;2.10;;;;;;;29.25;42.47;101063.47;1570020;90;21091;-51
2021/07/22 09:30:58;;;;;;;1.95;1.70;;;;;;;29.28;42.71;101072.58;1508026;95;21114;-49
2021/07/22 09:33:38;;;;;;;3.62;1.90;;;;;;;29.32;43.98;101061.42;1501222;95;21628;-48
2021/07/22 09:36:07;;;;;;;4.60;2.10;;;;;;;29.37;43.48;101067.66;1514596;94;21211;-50
2021/07/22 09:38:33;;;;;;;3.70;2.22;;;;;;;29.41;43.86;101061.02;1509193;95;21682;-49
2021/07/22 09:41:00;;;;;;;5.15;2.30;;;;;;;29.44;43.37;101046.84;1507447;95;21568;-50
2021/07/22 09:43:38;;;;;;;2.35;2.00;;;;;;;29.45;43.02;101047.17;1509098;95;21100;-50
2021/07/22 09:46:05;;;;;;;5.42;2.50;;;;;;;29.47;43.40;101047.05;1501876;95;21075;-50
2021/07/22 09:48:32;;;;;;;4.78;2.50;;;;;;;29.47;43.25;101053.23;1513251;95;21107;-50
2021/07/22 09:50:59;;;;;;;3.05;2.15;;;;;;;29.49;42.86;101051.25;1501695;95;21139;-52
2021/07/22 09:53:28;;;;;;;3.45;2.12;;;;;;;29.54;42.85;101049.47;1481618;96;21969;-50
2021/07/22 09:55:56;;;;;;;4.25;1.87;;;;;;;29.55;42.37;101052.52;1515828;93;21107;-51
2021/07/22 09:58:23;;;;;;;5.67;2.40;;;;;;;29.55;42.52;101055.20;1533549;93;21087;-50
2021/07/22 10:00:51;;;;;;;3.10;2.22;;;;;;;29.56;42.64;101055.53;1535351;93;21159;-51
2021/07/22 10:03:19;;;;;;;3.27;2.22;;;;;;;29.58;42.43;101057.56;1533859;92;21107;-53
2021/07/22 10:05:51;;;;;;;3.15;1.80;;;;;;;29.58;41.49;101060.25;1533058;94;21076;-50
2021/07/22 10:08:19;;;;;;;4.28;2.12;;;;;;;29.58;40.37;101052.20;1528330;92;21635;-50
2021/07/22 10:10:53;;;;;;;3.58;2.62;;;;;;;29.61;40.24;101051.40;1511973;94;21076;-51
2021/07/22 10:13:40;;;;;;;3.95;2.05;;;;;;;29.66;40.97;101049.63;1505638;95;21096;-52
2021/07/22 10:16:10;;;;;;;6.17;2.10;;;;;;;29.72;40.08;101047.69;1468781;98;21694;-52
2021/07/22 10:18:43;;;;;;;6.83;2.15;;;;;;;29.76;39.63;101045.08;1466415;98;21085;-52
2021/07/22 10:21:09;;;;;;;2.83;1.80;;;;;;;29.80;38.16;101040.28;1477250;96;21064;-50
2021/07/22 10:23:37;;;;;;;3.27;2.58;;;;;;;29.80;37.42;101042.45;1505332;93;21097;-51
2021/07/22 10:26:03;;;;;;;6.15;4.40;;;;;;;29.81;37.08;101041.47;1525429;92;21630;-51
2021/07/22 10:28:31;;;;;;;7.40;6.42;;;;;;;29.84;37.24;101039.84;1565192;90;21112;-51
2021/07/22 10:30:58;;;;;;;3.05;2.72;;;;;;;29.87;39.10;101036.84;1575524;90;21041;-49
2021/07/22 10:33:25;;;;;;;4.28;2.37;;;;;;;29.90;39.79;101039.24;1569597;91;21065;-48
2021/07/22 10:35:54;;;;;;;3.72;1.82;;;;;;;29.90;38.52;101041.92;1571665;90;21072;-54
2021/07/22 10:38:23;;;;;;;2.05;1.75;;;;;;;29.91;39.04;101054.33;1547231;92;21060;-50
2021/07/22 10:40:57;;;;;;;3.42;2.02;;;;;;;29.93;39.76;101051.00;1546981;90;21153;-50
2021/07/22 10:43:42;;;;;;;3.72;1.80;;;;;;;29.98;40.12;101051.89;1540788;92;21121;-54
2021/07/22 10:46:19;;;;;;;9.65;1.85;;;;;;;30.01;39.33;101046.20;1512675;91;21114;-50
2021/07/22 10:48:46;;;;;;;7.03;2.40;;;;;;;30.02;38.96;101050.59;1563227;90;21085;-50
2021/07/22 10:51:19;;;;;;;3.12;1.98;;;;;;;30.04;39.53;101048.11;1569090;88;21034;-50
2021/07/22 10:53:54;;;;;;;3.25;1.72;;;;;;;30.08;39.67;101045.47;1568504;90;21126;-51
2021/07/22 10:56:44;;;;;;;4.30;1.75;;;;;;;30.12;37.70;101049.55;1567988;90;21603;-55
2021/07/22 10:59:11;;;;;;;3.55;1.80;;;;;;;30.15;37.55;101055.93;1567810;89;21064;-51
2021/07/22 11:01:48;;;;;;;5.35;1.98;;;;;;;30.18;37.23;101061.02;1568882;89;21061;-49
2021/07/22 11:04:38;;;;;;;2.75;2.00;;;;;;;30.21;37.27;101062.55;1571029;89;21581;-50
2021/07/22 11:07:07;;;;;;;3.80;1.90;;;;;;;30.23;37.65;101064.06;1569094;88;21630;-49
2021/07/22 11:09:49;;;;;;;6.03;2.08;;;;;;;30.25;38.56;101063.42;1569680;89;21074;-50
2021/07/22 11:12:47;;;;;;;6.17;2.33;;;;;;;30.28;38.01;101067.16;1569387;89;21089;-50
2021/07/22 11:15:22;;;;;;;6.40;2.37;;;;;;;30.32;37.22;101067.23;1570732;90;21662;-52
2021/07/22 11:17:50;;;;;;;5.25;2.33;;;;;;;30.34;37.96;101064.38;1505770;93;21060;-50
2021/07/22 11:20:30;;;;;;;2.95;2.22;;;;;;;30.35;38.42;101069.62;1478321;95;21181;-51
2021/07/22 11:22:58;;;;;;;5.78;2.47;;;;;;;30.37;38.17;101074.34;1518018;93;21631;-53
2021/07/22 11:25:25;;;;;;;4.08;2.45;;;;;;;30.40;37.65;101061.94;1505925;94;21539;-50
2021/07/22 11:27:52;;;;;;;5.33;2.30;;;;;;;30.41;37.38;101069.01;1513446;94;21146;-53
2021/07/22 11:30:20;;;;;;;6.12;2.10;;;;;;;30.44;37.63;101070.03;1512375;93;21209;-53
2021/07/22 11:32:47;;;;;;;5.22;2.17;;;;;;;30.49;37.54;101066.89;1497679;94;21982;-53
2021/07/22 11:35:14;;;;;;;3.27;2.60;;;;;;;30.51;37.17;101061.72;1527358;92;21105;-51
2021/07/22 11:37:41;;;;;;;3.77;2.20;;;;;;;30.54;37.79;101068.63;1521979;92;21149;-50
2021/07/22 11:40:11;;;;;;;4.45;2.10;;;;;;;30.58;37.78;101071.84;1527481;92;21079;-51